Data for 08/13/2009

Time Sea-Level Adjusted Pressure Absolute Pressure Temperature Relative Humidity Dew Point   
(mb) (inHg) (mb) (inHg) (C) (F) (%) (C) (F)
00:05 1019 30.09 849 25.07 15.8 60.4 57 7.5 45.5
00:10 1020 30.12 849 25.07 15.7 60.2 57 7.2 45
00:15 1020 30.12 849 25.07 15.8 60.5 56 7.3 45.1
00:20 1020 30.12 849 25.07 16 60.8 57 7.6 45.7
00:25 1020 30.12 849 25.07 16.2 61.2 54 7 44.7
00:30 1020 30.12 849 25.07 16.3 61.3 54 7 44.5
00:35 1020 30.12 849 25.07 16.3 61.4 54 7 44.6
00:40 1020 30.12 849 25.07 16.2 61.2 54 7 44.5
00:45 1020 30.12 849 25.07 16.4 61.6 52 6.5 43.7
00:50 1020 30.12 849 25.07 16.8 62.3 52 7 44.5
00:55 1020 30.12 849 25.07 17 62.7 52 7.2 45
01:00 1020 30.12 849 25.07 16.8 62.3 52 7.2 44.9
01:05 1020 30.12 849 25.07 16.6 61.9 53 7 44.6
01:10 1020 30.12 849 25.07 16.5 61.7 54 7.2 44.9
01:15 1020 30.12 849 25.07 16.2 61.2 55 7.2 44.9
01:20 1020 30.12 849 25.07 16.3 61.3 53 6.8 44.3
01:25 1020 30.12 849 25.07 16.4 61.4 54 7 44.6
01:30 1020 30.12 849 25.07 16.2 61.1 55 7.2 45
01:35 1020 30.12 849 25.07 16 60.8 55 7.2 44.9
01:40 1020 30.12 849 25.07 15.7 60.2 58 7.6 45.7
01:45 1020 30.12 849 25.07 15.3 59.6 59 7.4 45.4
01:50 1020 30.12 849 25.07 14.5 58.1 63 7.7 45.8
01:55 1020 30.12 849 25.07 14.1 57.4 63 7.1 44.8
02:00 1020 30.12 849 25.07 14.6 58.2 58 6.4 43.5
02:05 1020 30.12 849 25.07 15.2 59.3 56 6.6 44
02:10 1020 30.12 849 25.07 15.2 59.4 60 7.5 45.5
02:15 1020 30.12 849 25.07 14.5 58.2 60 7 44.5
02:20 1020 30.12 849 25.07 14.2 57.6 62 7 44.6
02:25 1020 30.12 849 25.07 14 57.3 61 6.6 43.9
02:30 1020 30.12 849 25.07 14.3 57.7 60 6.7 44
02:35 1020 30.12 849 25.07 14.4 58 59 6.5 43.8
02:40 1020 30.12 849 25.07 14.6 58.3 58 6.6 43.8
02:45 1020 30.12 849 25.07 14.6 58.3 58 6.5 43.6
02:50 1020 30.12 849 25.07 14.5 58.2 58 6.5 43.8
02:55 1020 30.12 849 25.07 14.5 58 59 6.6 43.9
03:00 1020 30.12 849 25.07 14.3 57.8 59 6.6 43.9
03:05 1020 30.12 849 25.07 14.3 57.8 58 6.3 43.3
03:10 1020 30.12 849 25.07 14.4 57.8 60 6.7 44
03:15 1020 30.12 849 25.07 14.1 57.4 60 6.5 43.7
03:20 1020 30.12 849 25.07 14.1 57.4 60 6.4 43.5
03:25 1020 30.12 849 25.07 14 57.2 61 6.6 43.9
03:30 1020 30.12 849 25.07 13.7 56.6 61 6.3 43.4
03:35 1020 30.12 849 25.07 13.7 56.7 62 6.7 44.1
03:40 1020 30.12 849 25.07 13.1 55.6 66 6.9 44.5
03:45 1020 30.12 849 25.07 12.7 54.8 66 6.6 43.9
03:50 1020 30.12 849 25.07 13 55.4 63 6.3 43.3
03:55 1020 30.12 849 25.07 13.2 55.7 64 6.6 43.8
04:00 1020 30.12 849 25.07 13 55.4 65 6.6 43.9
04:05 1019 30.09 849 25.07 13.2 55.7 63 6.3 43.3
04:10 1019 30.09 849 25.07 13.3 55.9 64 6.6 43.9
04:15 1019 30.09 849 25.07 13.2 55.7 64 6.5 43.7
04:20 1020 30.12 849 25.07 13 55.5 64 6.4 43.4
04:25 1020 30.12 849 25.07 13.3 55.9 63 6.4 43.5
04:30 1020 30.12 849 25.07 13.3 55.9 64 6.6 43.9
04:35 1020 30.12 849 25.07 12.9 55.2 65 6.6 43.9
04:40 1020 30.12 849 25.07 12.5 54.6 67 6.5 43.7
04:45 1020 30.12 849 25.07 12.3 54.2 67 6.4 43.6
04:50 1020 30.12 849 25.07 12.2 54 67 6.4 43.5
04:55 1019 30.09 849 25.07 12.3 54.1 67 6.4 43.5
05:00 1019 30.09 849 25.07 12.2 54 68 6.5 43.6
05:05 1019 30.09 849 25.07 12.4 54.2 66 6.3 43.3
05:10 1019 30.09 849 25.07 12.6 54.6 66 6.4 43.6
05:15 1019 30.09 849 25.07 12.5 54.6 65 6.3 43.3
05:20 1019 30.09 849 25.07 12.6 54.6 65 6.2 43.1
05:25 1019 30.09 849 25.07 12.6 54.6 65 6.3 43.3
05:30 1019 30.09 849 25.07 12.3 54.1 66 6.2 43.2
05:35 1019 30.09 849 25.07 12.2 53.9 67 6.4 43.5
05:40 1019 30.09 849 25.07 11.9 53.3 68 6.1 43
05:45 1019 30.09 849 25.07 11.7 53 69 6.2 43.2
05:50 1019 30.09 849 25.07 11.4 52.5 70 6.2 43.2
05:55 1019 30.09 849 25.07 11.2 52.2 70 6 42.9
06:00 1019 30.09 849 25.07 11.4 52.5 69 5.9 42.7
06:05 1019 30.09 849 25.07 11.6 52.9 68 5.9 42.6
06:10 1019 30.09 849 25.07 11.7 53.1 68 6 42.7
06:15 1019 30.09 849 25.07 11.7 53 68 6 42.8
06:20 1020 30.12 849 25.07 11.6 52.9 68 6 42.8
06:25 1020 30.12 849 25.07 11.5 52.7 70 6.2 43.2
06:30 1020 30.12 849 25.07 11.3 52.4 69 6 42.8
06:35 1020 30.12 849 25.07 11.3 52.3 70 6 42.9
06:40 1020 30.12 849 25.07 11.3 52.4 70 6.1 42.9
06:45 1019 30.09 849 25.07 11.4 52.6 70 6.2 43.1
06:50 1019 30.09 849 25.07 11.4 52.6 70 6.2 43.2
06:55 1019 30.09 849 25.07 11.4 52.5 70 6.2 43.1
07:00 1019 30.09 849 25.07 11.4 52.5 70 6.2 43.1
07:05 1019 30.09 849 25.07 11.4 52.6 69 6.1 42.9
07:10 1019 30.09 849 25.07 11.7 53 69 6.1 43.1
07:15 1019 30.09 849 25.07 11.6 52.8 69 6.2 43.1
07:20 1019 30.09 849 25.07 11.5 52.7 69 6.1 43.1
07:25 1019 30.09 849 25.07 11.7 53.1 69 6.2 43.2
07:30 1019 30.09 849 25.07 12.1 53.8 67 6.2 43.1
07:35 1019 30.09 849 25.07 12.5 54.5 66 6.4 43.5
07:40 1019 30.09 849 25.07 12.7 54.9 66 6.5 43.7
07:45 1019 30.09 849 25.07 13 55.3 64 6.3 43.4
07:50 1019 30.09 849 25.07 13.1 55.5 65 6.7 44
07:55 1019 30.09 849 25.07 13.4 56.1 63 6.5 43.7
08:00 1019 30.09 849 25.07 13.6 56.4 64 6.8 44.3
08:05 1019 30.09 849 25.07 13.7 56.6 62 6.6 43.8
08:10 1019 30.09 849 25.07 13.8 56.8 62 6.7 44
08:15 1019 30.09 848 25.04 14.3 57.8 61 7 44.6
08:20 1019 30.09 848 25.04 14.6 58.2 60 7 44.6
08:25 1019 30.09 848 25.04 14.9 58.9 59 7.1 44.7
08:30 1019 30.09 848 25.04 15.3 59.5 59 7.3 45.2
08:35 1019 30.09 848 25.04 15.6 60.1 58 7.6 45.6
08:40 1019 30.09 848 25.04 15.8 60.5 56 7 44.7
08:45 1019 30.09 848 25.04 16 60.8 56 7.4 45.3
08:50 1019 30.09 848 25.04 16.4 61.5 56 7.6 45.7
08:55 1019 30.09 848 25.04 17.1 62.9 53 7.5 45.5
09:00 1019 30.09 848 25.04 17.5 63.5 52 7.7 45.9
09:05 1019 30.09 848 25.04 17.9 64.2 51 7.6 45.7
09:10 1019 30.09 848 25.04 18.7 65.6 48 7.5 45.5
09:15 1019 30.09 848 25.04 19.1 66.4 45 7.2 44.9
09:20 1019 30.09 848 25.04 19.7 67.5 42 6.7 44.1
09:25 1019 30.09 848 25.04 20.1 68.2 43 7.2 45
09:30 1019 30.09 848 25.04 20.4 68.6 42 7.1 44.7
09:35 1019 30.09 848 25.04 20.4 68.7 42 7.1 44.8
09:40 1019 30.09 848 25.04 19.8 67.6 44 7.5 45.5
09:45 1019 30.09 848 25.04 19.7 67.4 43 6.8 44.3
09:50 1019 30.09 848 25.04 20.3 68.5 41 6.7 44.1
09:55 1019 30.09 848 25.04 20.7 69.2 41 7.3 45.1
10:00 1019 30.09 848 25.04 21.1 69.9 39 6.7 44.1
10:05 1019 30.09 848 25.04 21.4 70.5 39 6.9 44.4
10:10 1018 30.06 848 25.04 21 69.8 39 6.7 44.1
10:15 1018 30.06 848 25.04 21.6 70.9 38 7 44.5
10:20 1018 30.06 848 25.04 21.4 70.5 40 7.4 45.2
10:25 1018 30.06 848 25.04 21.8 71.3 36 6.4 43.6
10:30 1018 30.06 847 25.01 22 71.6 38 7.3 45.2
10:35 1018 30.06 847 25.01 22.5 72.4 37 7.2 44.9
10:40 1018 30.06 847 25.01 22.2 72 40 8.3 47
10:45 1018 30.06 847 25.01 20.9 69.6 42 7.8 46
10:50 1018 30.06 847 25.01 21.7 71 40 7.7 45.9
10:55 1018 30.06 847 25.01 21.3 70.3 43 8.2 46.8
11:00 1018 30.06 847 25.01 21 69.8 43 8.1 46.5
11:05 1018 30.06 847 25.01 21 69.9 41 7.5 45.6
11:10 1018 30.06 847 25.01 22.4 72.3 38 7.5 45.5
11:15 1018 30.06 847 25.01 22.2 72 41 8.3 47
11:20 1018 30.06 847 25.01 21.3 70.4 42 8.2 46.8
11:25 1018 30.06 847 25.01 22 71.5 40 7.9 46.2
11:30 1018 30.06 847 25.01 22.1 71.8 40 8.1 46.6
11:35 1018 30.06 847 25.01 22.6 72.7 41 8.7 47.7
11:40 1018 30.06 847 25.01 22.2 71.9 40 8.1 46.6
11:45 1018 30.06 847 25.01 22.6 72.7 41 8.9 48.1
11:50 1018 30.06 847 25.01 23.1 73.6 37 8 46.3
11:55 1018 30.06 847 25.01 23.3 74 39 8.6 47.5
12:00 1018 30.06 847 25.01 22.2 72 39 7.8 46
12:05 1018 30.06 847 25.01 23.3 74 37 8.1 46.6
12:10 1018 30.06 847 25.01 23.1 73.6 39 8.7 47.6
12:15 1017 30.03 847 25.01 23.1 73.5 37 8 46.4
12:20 1018 30.06 847 25.01 22.8 73 40 8.7 47.7
12:25 1018 30.06 847 25.01 22.9 73.3 39 8.3 47
12:30 1017 30.03 847 25.01 22.5 72.4 41 8.7 47.7
12:35 1017 30.03 846 24.98 23.1 73.6 38 8.1 46.5
12:40 1017 30.03 846 24.98 23.3 73.9 40 9.1 48.5
12:45 1017 30.03 846 24.98 23.2 73.8 39 8.8 47.8
12:50 1017 30.03 846 24.98 23.2 73.8 39 8.5 47.4
12:55 1017 30.03 846 24.98 23.7 74.7 37 8.3 46.9
13:00 1017 30.03 846 24.98 24 75.2 35 8 46.4
13:05 1017 30.03 846 24.98 24.5 76.1 35 8.4 47.1
13:10 1017 30.03 846 24.98 24.2 75.5 35 8 46.4
13:15 1017 30.03 846 24.98 24.7 76.5 35 8.3 46.9
13:20 1017 30.03 846 24.98 25.4 77.8 34 8.7 47.7
13:25 1017 30.03 846 24.98 26 78.7 31 7.7 45.8
13:30 1017 30.03 846 24.98 25.8 78.5 32 8 46.4
13:35 1017 30.03 846 24.98 26.2 79.2 31 7.9 46.2
13:40 1017 30.03 846 24.98 26.3 79.3 29 7 44.6
13:45 1017 30.03 846 24.98 26 78.8 31 7.8 46.1
13:50 1017 30.03 846 24.98 24.6 76.2 33 7.4 45.3
13:55 1017 30.03 846 24.98 25 77 31 6.9 44.4
14:00 1017 30.03 846 24.98 24.9 76.9 31 7 44.6
14:05 1016 30 846 24.98 24.6 76.4 33 7.4 45.3
14:10 1016 30 846 24.98 25 76.9 31 6.9 44.5
14:15 1016 30 846 24.98 25.9 78.6 30 7.5 45.5
14:20 1016 30 846 24.98 25.4 77.8 32 7.6 45.7
14:25 1016 30 845 24.95 24.3 75.7 34 7.9 46.1
14:30 1016 30 845 24.95 24.2 75.6 35 7.8 46.1
14:35 1016 30 845 24.95 25 76.9 33 7.9 46.3
14:40 1016 30 845 24.95 24.5 76 33 7.2 45
14:45 1016 30 845 24.95 25 76.9 31 7 44.7
14:50 1016 30 845 24.95 25.6 78.1 32 7.8 46
14:55 1016 30 845 24.95 25.6 78 30 7 44.7
15:00 1016 30 845 24.95 26.1 79.1 31 7.8 46
15:05 1016 30 845 24.95 25.9 78.5 32 8 46.3
15:10 1016 30 845 24.95 25.8 78.4 31 7.4 45.4
15:15 1016 30 845 24.95 26 78.7 30 7.2 45
15:20 1016 30 845 24.95 26.3 79.4 28 6.9 44.4
15:25 1016 30 845 24.95 26.4 79.5 30 7.8 46.1
15:30 1016 30 845 24.95 26.8 80.3 28 7.3 45.1
15:35 1015 29.97 845 24.95 27.2 81 28 7.4 45.3
15:40 1015 29.97 845 24.95 26.6 79.8 29 7.5 45.4
15:45 1015 29.97 844 24.92 26.7 80.1 30 7.8 46
15:50 1015 29.97 844 24.92 27.5 81.4 27 7.1 44.8
15:55 1015 29.97 844 24.92 27.5 81.6 29 8.2 46.7
16:00 1015 29.97 844 24.92 26.7 80.1 29 7.6 45.7
16:05 1015 29.97 844 24.92 27.2 81 29 7.8 46.1
16:10 1015 29.97 844 24.92 27.3 81.1 31 8.8 47.9
16:15 1015 29.97 844 24.92 26.3 79.4 31 8.2 46.8
16:20 1015 29.97 844 24.92 26 78.9 28 6.3 43.4
16:25 1015 29.97 844 24.92 26 78.8 28 6.3 43.4
16:30 1014 29.94 844 24.92 25.9 78.6 28 6.5 43.7
16:35 1014 29.94 844 24.92 25.8 78.5 29 6.7 44
16:40 1014 29.94 844 24.92 25.7 78.2 29 6.4 43.4
16:45 1014 29.94 844 24.92 25.5 78 29 6.3 43.4
16:50 1015 29.97 844 24.92 25.7 78.3 28 5.9 42.6
16:55 1015 29.97 844 24.92 25.5 77.8 29 6.2 43.2
17:00 1015 29.97 844 24.92 25.5 77.8 29 6.2 43.1
17:05 1015 29.97 844 24.92 25.3 77.6 28 5.8 42.5
17:10 1015 29.97 844 24.92 25.1 77.2 30 6.6 43.9
17:15 1015 29.97 844 24.92 25 76.9 30 6.6 43.9
17:20 1015 29.97 844 24.92 25.1 77.2 30 6.3 43.4
17:25 1015 29.97 845 24.95 25.1 77.2 29 6.2 43.1
17:30 1015 29.97 845 24.95 25.6 78 27 5.6 42.1
17:35 1015 29.97 845 24.95 25.4 77.7 28 5.6 42.1
17:40 1015 29.97 845 24.95 25.3 77.5 29 6 42.8
17:45 1015 29.97 845 24.95 24.5 76.1 30 6 42.8
17:50 1015 29.97 845 24.95 23.8 74.8 31 5.8 42.4
17:55 1015 29.97 844 24.92 23.1 73.6 31 5.3 41.5
18:00 1015 29.97 844 24.92 22.9 73.3 32 5.5 41.9
18:05 1015 29.97 845 24.95 22.9 73.3 32 5.7 42.3
18:10 1015 29.97 845 24.95 23 73.4 31 5.4 41.7
18:15 1015 29.97 845 24.95 23.2 73.7 31 5.2 41.3
18:20 1016 30 845 24.95 23.4 74.2 31 5.5 42
18:25 1016 30 845 24.95 23.3 73.9 32 6 42.7
18:30 1016 30 845 24.95 22.9 73.3 34 6.4 43.5
18:35 1016 30 845 24.95 22.7 72.8 34 6 42.8
18:40 1016 30 846 24.98 22.5 72.6 38 7.5 45.6
18:45 1017 30.03 846 24.98 21.7 71.1 49 10.7 51.2
18:50 1017 30.03 846 24.98 19.8 67.7 56 11 51.8
18:55 1017 30.03 846 24.98 19 66.2 58 10.7 51.2
19:00 1016 30 845 24.95 18.3 64.9 69 12.6 54.7
19:05 1016 30 845 24.95 17.2 63 67 11.1 52
19:10 1016 30 845 24.95 17.3 63.2 67 11.2 52.1
19:15 1016 30 845 24.95 17.6 63.6 66 11.3 52.3
19:20 1016 30 845 24.95 17.6 63.6 67 11.4 52.6
19:25 1016 30 845 24.95 17.6 63.7 66 11.2 52.2
19:30 1016 30 845 24.95 17.9 64.3 60 10.3 50.5
19:35 1016 30 845 24.95 18 64.4 61 10.4 50.6
19:40 1016 30 845 24.95 18 64.3 60 10.2 50.3
19:45 1016 30 846 24.98 18.2 64.7 62 10.8 51.4
19:50 1016 30 846 24.98 18 64.4 63 10.9 51.6
19:55 1016 30 846 24.98 17.9 64.1 65 11.2 52.2
20:00 1016 30 845 24.95 17.9 64.2 64 11.1 52
20:05 1016 30 846 24.98 17.5 63.4 65 11 51.7
20:10 1016 30 846 24.98 17.3 63.2 65 10.6 51.2
20:15 1017 30.03 846 24.98 17.2 63 66 10.9 51.7
20:20 1017 30.03 846 24.98 17.2 62.9 69 11.5 52.6
20:25 1017 30.03 846 24.98 16.8 62.2 71 11.5 52.7
20:30 1017 30.03 846 24.98 16.9 62.3 68 10.9 51.7
20:35 1017 30.03 846 24.98 16.9 62.4 69 11.2 52.2
20:40 1017 30.03 846 24.98 16.7 62 67 10.7 51.3
20:45 1017 30.03 846 24.98 16.1 61 71 10.8 51.5
20:50 1017 30.03 846 24.98 15.4 59.8 74 10.9 51.7
20:55 1017 30.03 847 25.01 14.7 58.4 77 10.8 51.5
21:00 1018 30.06 847 25.01 14.2 57.6 76 10.2 50.3
21:05 1018 30.06 847 25.01 14.1 57.4 76 10 50
21:10 1018 30.06 847 25.01 13.9 56.9 76 9.7 49.4
21:15 1018 30.06 847 25.01 13.8 56.8 76 9.7 49.4
21:20 1018 30.06 847 25.01 13.7 56.6 77 9.7 49.5
21:25 1018 30.06 847 25.01 13.6 56.6 77 9.7 49.4
21:30 1018 30.06 847 25.01 13.5 56.4 78 9.7 49.5
21:35 1018 30.06 847 25.01 13.5 56.3 78 9.7 49.5
21:40 1018 30.06 847 25.01 13.3 56 78 9.7 49.4
21:45 1018 30.06 848 25.04 13.2 55.8 79 9.6 49.4
21:50 1018 30.06 848 25.04 13.2 55.8 79 9.6 49.3
21:55 1018 30.06 848 25.04 13.2 55.7 79 9.6 49.2
22:00 1019 30.09 848 25.04 13.1 55.5 79 9.5 49.1
22:05 1019 30.09 848 25.04 13 55.4 79 9.5 49.2
22:10 1019 30.09 848 25.04 12.7 54.9 82 9.7 49.5
22:15 1019 30.09 848 25.04 12.5 54.4 82 9.5 49
22:20 1019 30.09 848 25.04 12.4 54.3 82 9.4 49
22:25 1019 30.09 848 25.04 12.3 54.1 82 9.3 48.8
22:30 1019 30.09 848 25.04 12.3 54.1 82 9.2 48.6
22:35 1019 30.09 848 25.04 12.3 54.2 81 9.2 48.6
22:40 1019 30.09 848 25.04 12.5 54.6 80 9.2 48.6
22:45 1019 30.09 848 25.04 12.6 54.7 80 9.2 48.5
22:50 1019 30.09 848 25.04 12.5 54.5 80 9.2 48.6
22:55 1019 30.09 848 25.04 12.4 54.4 80 9.2 48.5
23:00 1019 30.09 848 25.04 12.5 54.4 79 9 48.2
23:05 1019 30.09 848 25.04 12.6 54.7 79 9 48.3
23:10 1019 30.09 848 25.04 12.6 54.7 79 9 48.2
23:15 1019 30.09 848 25.04 12.6 54.7 78 8.9 48
23:20 1019 30.09 848 25.04 12.6 54.7 78 8.9 48
23:25 1019 30.09 848 25.04 12.8 55 77 8.8 47.8
23:30 1019 30.09 848 25.04 12.9 55.3 75 8.7 47.7
23:35 1019 30.09 848 25.04 13.1 55.5 75 8.8 47.9
23:40 1019 30.09 848 25.04 13 55.3 76 8.9 47.9
23:45 1019 30.09 848 25.04 12.8 55 77 8.9 48.1
23:50 1019 30.09 848 25.04 12.6 54.6 77 8.8 47.8
23:55 1019 30.09 848 25.04 12.5 54.5 78 8.9 47.9
24:00 1019 30.09 848 25.04 12.3 54.2 79 8.9 48